Terminal Aerodrome Forecast
Issued by NWS

Home | Current Version | Previous Version | Text Only | Print | Product List | Glossary On
Versions: 1 2 3 4 5 6 7 8 9 10 11 12 13 14 15
000
FTUS45 KSLC 202343
TAFBCE
TAF
KBCE 202343Z 2100/2124 30010KT P6SM VCSH SCT060 SCT100
     FM210300 27006KT P6SM FEW060 SCT120
     FM211600 16007KT P6SM FEW060 SCT120
     FM211900 20010KT P6SM VCSH SCT060 BKN120=

USA.gov is the U.S. government's official web portal to all federal, state and local government web resources and services.